createdAt,value
2019-02-06T00:01:21.827Z,42.97
2019-02-06T00:06:19.092Z,62.17
2019-02-06T00:11:15.998Z,55.60
2019-02-06T00:16:13.421Z,49.40
2019-02-06T00:21:10.184Z,56.43
2019-02-06T00:26:07.144Z,57.97
2019-02-06T00:31:04.100Z,53.43
2019-02-06T00:36:01.286Z,57.27
2019-02-06T00:40:58.222Z,47.53
2019-02-06T00:45:55.582Z,43.90
2019-02-06T00:50:52.494Z,39.37
2019-02-06T00:55:49.437Z,41.57
2019-02-06T01:00:46.354Z,48.20
2019-02-06T01:05:43.397Z,52.63
2019-02-06T01:10:40.319Z,49.37
2019-02-06T01:15:37.378Z,43.37
2019-02-06T01:20:34.293Z,45.63
2019-02-06T01:25:31.439Z,36.90
2019-02-06T01:30:30.197Z,34.43
2019-02-06T01:35:27.466Z,35.90
2019-02-06T01:40:24.397Z,29.43
2019-02-06T01:45:21.843Z,31.67
2019-02-06T01:50:18.951Z,32.57
2019-02-06T01:55:16.009Z,37.80
2019-02-06T02:00:23.041Z,32.30
2019-02-06T02:05:21.593Z,36.13
2019-02-06T02:10:19.610Z,43.27
2019-02-06T02:15:18.331Z,40.07
2019-02-06T02:20:22.874Z,39.37
2019-02-06T02:25:20.001Z,40.70
2019-02-06T02:30:25.507Z,39.10
2019-02-06T02:35:22.566Z,47.53
2019-02-06T02:40:19.510Z,44.20
2019-02-06T02:45:17.926Z,57.63
2019-02-06T02:50:15.298Z,47.17
2019-02-06T02:55:13.209Z,45.70
2019-02-06T03:00:20.510Z,43.50
2019-02-06T03:05:18.721Z,53.63
2019-02-06T03:10:16.253Z,58.13
2019-02-06T03:15:13.478Z,52.53
2019-02-06T03:20:12.421Z,56.00
2019-02-06T03:25:13.252Z,59.17
2019-02-06T03:30:17.397Z,49.00
2019-02-06T03:35:14.416Z,47.30
2019-02-06T03:40:17.057Z,45.83
2019-02-06T03:45:14.244Z,46.77
2019-02-06T03:50:17.444Z,44.47
2019-02-06T03:55:14.666Z,44.80
2019-02-06T04:00:15.326Z,45.77
2019-02-06T04:05:12.940Z,47.53
2019-02-06T04:10:16.299Z,50.27
2019-02-06T04:15:14.635Z,44.77
2019-02-06T04:20:13.750Z,45.67
2019-02-06T04:25:13.063Z,40.60
2019-02-06T04:30:18.593Z,45.97
2019-02-06T04:35:15.608Z,59.80
2019-02-06T04:40:17.879Z,44.50
2019-02-06T04:45:17.898Z,52.77
2019-02-06T04:50:18.362Z,50.40
2019-02-06T04:55:17.165Z,50.27
2019-02-06T05:00:24.231Z,54.87
2019-02-06T05:05:21.136Z,54.53
2019-02-06T05:10:18.104Z,54.93
2019-02-06T05:15:16.903Z,64.53
2019-02-06T05:20:31.254Z,59.80
2019-02-06T05:25:28.175Z,51.87
2019-02-06T05:30:25.127Z,56.43
2019-02-06T05:35:22.152Z,53.63
2019-02-06T05:40:19.149Z,65.53
2019-02-06T05:45:16.454Z,60.67
2019-02-06T05:50:16.840Z,45.73
2019-02-06T05:55:16.422Z,52.23
2019-02-06T06:00:25.418Z,50.73
2019-02-06T06:05:23.130Z,36.80
2019-02-06T06:10:20.262Z,37.90
2019-02-06T06:15:19.273Z,51.70
2019-02-06T06:20:18.842Z,73.00
2019-02-06T06:25:18.189Z,74.50
2019-02-06T06:30:19.006Z,72.53
2019-02-06T06:35:16.113Z,74.60
2019-02-06T06:40:20.416Z,65.80
2019-02-06T06:45:21.126Z,77.57
2019-02-06T06:50:21.981Z,66.33
2019-02-06T06:55:19.198Z,78.53
2019-02-06T07:00:26.432Z,57.10
2019-02-06T07:05:23.387Z,63.90
2019-02-06T07:10:20.345Z,88.73
2019-02-06T07:15:24.080Z,82.50
2019-02-06T07:20:20.989Z,105.33
2019-02-06T07:25:18.767Z,59.83
2019-02-06T07:30:33.676Z,47.33
2019-02-06T07:35:30.633Z,41.07
2019-02-06T07:40:28.932Z,46.97
2019-02-06T07:45:25.840Z,45.73
2019-02-06T07:50:29.698Z,39.37
2019-02-06T07:55:27.104Z,44.23
2019-02-06T08:00:24.184Z,46.97
2019-02-06T08:05:21.890Z,65.70
2019-02-06T08:10:31.126Z,78.37
2019-02-06T08:15:28.122Z,78.47
2019-02-06T08:20:25.497Z,61.40
2019-02-06T08:25:24.390Z,65.03
2019-02-06T08:30:34.805Z,58.93
2019-02-06T08:35:31.734Z,51.83
2019-02-06T08:40:30.421Z,56.93
2019-02-06T08:45:27.337Z,51.03
2019-02-06T08:50:24.699Z,56.43
2019-02-06T08:55:30.084Z,46.07
2019-02-06T09:00:38.890Z,51.03
2019-02-06T09:05:36.193Z,58.83
2019-02-06T09:10:33.338Z,53.90
2019-02-06T09:15:30.277Z,57.10
2019-02-06T09:20:29.041Z,58.53
2019-02-06T09:25:27.946Z,47.13
2019-02-06T09:30:33.705Z,54.37
2019-02-06T09:35:31.009Z,83.57
2019-02-06T09:40:30.174Z,53.67
2019-02-06T09:45:27.483Z,49.33
2019-02-06T09:50:31.034Z,35.83
2019-02-06T09:55:28.496Z,40.00
2019-02-06T10:00:36.497Z,47.13
2019-02-06T10:05:33.821Z,42.07
2019-02-06T10:10:30.782Z,37.37
2019-02-06T10:15:33.621Z,37.13
2019-02-06T10:20:38.421Z,26.27
2019-02-06T10:25:36.236Z,38.43
2019-02-06T10:30:42.846Z,42.60
2019-02-06T10:35:39.750Z,37.70
2019-02-06T10:40:36.757Z,32.60
2019-02-06T10:45:33.955Z,29.53
2019-02-06T10:50:38.673Z,32.93
2019-02-06T10:55:35.782Z,34.43
2019-02-06T11:00:45.609Z,31.40
2019-02-06T11:05:42.738Z,36.43
2019-02-06T11:10:39.710Z,31.40
2019-02-06T11:15:36.836Z,37.67
2019-02-06T11:20:38.633Z,32.43
2019-02-06T11:25:35.853Z,29.93
2019-02-06T11:30:37.666Z,26.90
2019-02-06T11:35:35.173Z,34.67
2019-02-06T11:40:32.363Z,38.53
2019-02-06T11:45:32.097Z,35.33
2019-02-06T11:50:39.591Z,26.87
2019-02-06T11:55:36.495Z,25.37
2019-02-06T12:00:35.756Z,50.17
2019-02-06T12:05:32.674Z,27.40
2019-02-06T12:10:29.617Z,29.90
2019-02-06T12:15:26.610Z,33.03
2019-02-06T12:20:24.627Z,27.60
2019-02-06T12:25:21.575Z,77.27
2019-02-06T12:30:28.433Z,51.30
2019-02-06T12:35:25.561Z,40.07
2019-02-06T12:40:22.990Z,30.50
2019-02-06T12:45:23.151Z,36.57
2019-02-06T12:50:22.236Z,23.43
2019-02-06T12:55:40.391Z,43.67
2019-02-06T13:00:42.616Z,33.37
2019-02-06T13:05:39.552Z,18.37
2019-02-06T13:10:36.587Z,14.30
2019-02-06T13:15:33.484Z,13.57
2019-02-06T13:20:35.431Z,14.37
2019-02-06T13:25:32.335Z,13.03
2019-02-06T13:30:32.473Z,15.87
2019-02-06T13:35:29.393Z,29.50
2019-02-06T13:40:29.230Z,15.57
2019-02-06T13:45:30.401Z,15.00
2019-02-06T13:50:27.581Z,12.47
2019-02-06T13:55:24.680Z,12.00
2019-02-06T14:00:31.035Z,15.07
2019-02-06T14:05:30.341Z,10.87
2019-02-06T14:10:29.900Z,29.87
2019-02-06T14:15:43.692Z,33.17
2019-02-06T14:20:40.998Z,34.60
2019-02-06T14:25:55.358Z,17.40
2019-02-06T14:31:46.219Z,27.60
2019-02-06T14:37:18.929Z,14.83
2019-02-06T14:42:52.974Z,21.53
2019-02-06T14:48:13.221Z,33.90
2019-02-06T14:53:19.391Z,33.80
2019-02-06T14:58:59.895Z,17.00
2019-02-06T15:04:29.266Z,13.17
2019-02-06T15:09:58.987Z,18.43
2019-02-06T15:15:36.619Z,13.10
2019-02-06T15:21:14.157Z,16.40
2019-02-06T15:26:36.529Z,34.50
2019-02-06T15:31:56.912Z,22.50
2019-02-06T15:37:15.005Z,13.57
2019-02-06T15:42:35.834Z,18.73
2019-02-06T15:47:57.124Z,11.63
2019-02-06T15:53:05.494Z,20.90
2019-02-06T15:58:25.839Z,20.70
2019-02-06T16:04:06.453Z,30.07
2019-02-06T16:09:27.185Z,51.57
2019-02-06T16:14:41.111Z,36.93
2019-02-06T16:19:49.418Z,32.70
2019-02-06T16:25:20.442Z,27.80
2019-02-06T16:30:41.385Z,30.83
2019-02-06T16:35:49.557Z,26.67
2019-02-06T16:41:24.717Z,68.13
2019-02-06T16:47:06.929Z,55.77
2019-02-06T16:52:47.514Z,36.07
2019-02-06T16:58:04.883Z,29.27
2019-02-06T17:03:22.313Z,32.20
2019-02-06T17:08:51.815Z,30.77
2019-02-06T17:13:56.950Z,27.20
2019-02-06T17:19:13.965Z,24.07
2019-02-06T17:24:38.698Z,50.60
2019-02-06T17:30:02.318Z,90.83
2019-02-06T17:35:10.969Z,87.83
2019-02-06T17:40:28.246Z,99.20
2019-02-06T17:45:48.277Z,131.00
2019-02-06T17:51:08.397Z,115.67
2019-02-06T17:56:05.321Z,104.03
2019-02-06T18:01:07.753Z,98.23
2019-02-06T18:06:05.872Z,108.90
2019-02-06T18:11:02.939Z,53.77
2019-02-06T18:15:59.855Z,28.73
2019-02-06T18:20:57.261Z,26.60
2019-02-06T18:25:54.689Z,47.63
2019-02-06T18:30:52.343Z,55.13
2019-02-06T18:35:51.071Z,56.00
2019-02-06T18:40:48.205Z,123.70
2019-02-06T18:45:45.330Z,66.13
2019-02-06T18:50:42.501Z,81.07
2019-02-06T18:55:39.699Z,67.40
2019-02-06T19:00:39.830Z,78.87
2019-02-06T19:05:37.769Z,67.57
2019-02-06T19:10:34.965Z,43.97
2019-02-06T19:15:32.391Z,50.47
2019-02-06T19:20:29.558Z,36.10
2019-02-06T19:25:26.497Z,39.47
2019-02-06T19:30:39.802Z,37.07
2019-02-06T19:35:36.703Z,24.07
2019-02-06T19:40:34.195Z,23.37
2019-02-06T19:45:31.203Z,23.07
2019-02-06T19:50:39.715Z,27.03
2019-02-06T19:55:37.043Z,27.33
2019-02-06T20:00:35.628Z,23.73
2019-02-06T20:05:33.225Z,33.17
2019-02-06T20:10:38.298Z,29.07
2019-02-06T20:15:35.358Z,33.33
2019-02-06T20:20:32.347Z,33.27
2019-02-06T20:25:29.704Z,27.50
2019-02-06T20:30:32.066Z,35.20
2019-02-06T20:35:29.538Z,34.23
2019-02-06T20:40:36.079Z,31.30
2019-02-06T20:45:33.107Z,24.53
2019-02-06T20:50:34.890Z,31.60
2019-02-06T20:55:32.102Z,32.43
2019-02-06T21:00:33.878Z,31.83
2019-02-06T21:05:30.794Z,21.63
2019-02-06T21:10:30.947Z,45.87
2019-02-06T21:15:28.036Z,24.40
2019-02-06T21:20:25.668Z,19.47
2019-02-06T21:25:26.197Z,21.00
2019-02-06T21:30:32.644Z,17.53
2019-02-06T21:35:29.793Z,32.23
2019-02-06T21:40:33.147Z,32.13
2019-02-06T21:45:30.207Z,23.00
2019-02-06T21:50:27.293Z,23.60
2019-02-06T21:55:25.892Z,23.73
2019-02-06T22:00:35.957Z,23.40
2019-02-06T22:05:33.268Z,27.43
2019-02-06T22:10:30.454Z,40.13
2019-02-06T22:15:30.460Z,33.60
2019-02-06T22:20:27.669Z,34.50
2019-02-06T22:25:24.810Z,34.20
2019-02-06T22:30:29.711Z,29.60
2019-02-06T22:35:26.673Z,36.90
2019-02-06T22:40:26.166Z,68.27
2019-02-06T22:45:27.746Z,105.37
2019-02-06T22:50:27.754Z,109.87
2019-02-06T22:55:25.113Z,106.87
2019-02-06T23:00:49.560Z,90.73
2019-02-06T23:05:46.651Z,64.30
2019-02-06T23:10:43.725Z,69.00
2019-02-06T23:15:41.600Z,76.67
2019-02-06T23:20:38.821Z,66.67
2019-02-06T23:25:35.766Z,55.13
2019-02-06T23:30:32.976Z,43.80
2019-02-06T23:35:30.170Z,49.80
2019-02-06T23:40:27.173Z,44.93
2019-02-06T23:45:24.139Z,46.93
2019-02-06T23:50:21.365Z,53.70
2019-02-06T23:55:18.313Z,52.87
